首页
METAR-TAF:

METAR-TAF

机场 :

喀土穆国际机场

喀土穆, 苏丹共和国

纬度: 15-36N, 经度: 032-33E, 海拔: 382米

当前天气观测

该预报发布于53分钟前的03:30 UTC
风速2节,风向
温度 32°C
湿度 29%
气压 1007 hPa
能见度10公里或以上
1500米以下无云,无积雨云

METAR: HSSS 270330Z 36002KT CAVOK 32/12 Q1007 NOSIG

时间: 07:23 (04:23 UTC)

预报

该预报发布于5小时和23分钟前的23:00 UTC
预报有效从27日的 00点(UTC)到 28日的 06点(UTC)
风速6节,风向北转东北,有时为15节阵风
能见度10公里或以上
1500米以下无云,无积雨云
短暂存在
从 27日的 02点(UTC)到 27日的 06点(UTC)
风速3节,风向多变
能見度: 4000
短暂存在
从 27日的 11点(UTC)到 27日的 16点(UTC)
风速3节,风向多变
能見度: 6000
少量云层高于4000英尺
少量云层高于14000英尺

TAF: HSSS 262300Z 2700/2806 02006G15KT CAVOK TEMPO 2702/2706 VRB03KT 4000 HZ TEMPO 2711/2716 VRB03KT 6000 FEW040 FEW140

超过4000个机场的气象观测和天气预报(METAR&TAF报告)。

可查询的气象台以黄色和红色小点在地图上表示。

将鼠标移到小点上方,可查看气象台名称。

然后点击查看天气观测和预报。

如需切换地图:点击带黑十字的绿色按钮放大地图;点击带横线的绿色按钮缩小地图;或者点击绿色箭头查看邻近地区的地图。


METAR-TAF: